サンパウロ/グアルーリョス の空港の天気 - METARとTAF

グアルーリョス国際空港 (サンパウロ) ( SBGR / GRU ) - ブラジル サンパウロ州サンパウロ市
飛行場実況気象(Metar)
観測時間10/21 13:00 BRT (10/21 16:00 UTC)
風向・風速東南東 4m/s
視程10km以上
天気現象
全天の4割程度の雲 雲底高度 1220m
気温26℃
湿度54%
気圧1020hPa
METARSBGR 211600Z 12008KT 9999 SCT040 26/16 Q1020
過去の天気等 Google飛行場航空写真 Wunderground天気予報

過去48時間のMETAR

飛行場予報(TAF)
発表時間: 10/21 07:00 BRT (10/21 10:00 UTC)
予報対象時間: 21日9時 BRT ~ 22日15時 BRT
風向・風速南東 3m/s
視程10km以上
全天の8割程度の雲 雲底高度 270m
21日9時 BRT ~ 21日11時 BRT に徐々に
全天の8割程度の雲 雲底高度 520m
21日12時 BRT ~ 21日15時 BRT に徐々に
風向・風速南南東 5m/s
全天の8割程度の雲 雲底高度 760m
21日16時 BRT ~ 21日18時 BRT に徐々に
全天の8割程度の雲 雲底高度 340m
21日20時 BRT ~ 21日22時 BRT に徐々に
全天の8割程度の雲 雲底高度 270m
21日22時 BRT ~ 21日24時 BRT に徐々に
風向・風速東南東 3m/s
22日9時 BRT ~ 22日11時 BRT に徐々に
視程10km以上
全天の8割程度の雲 雲底高度 520m
22日12時 BRT ~ 22日14時 BRT に徐々に
風向・風速東南東 5m/s
全天の8割程度の雲 雲底高度 760m
TAF SBGR 211000Z 2112/2218 14005KT 9999 BKN009 TX24/2117Z TN18/2209Z
BECMG 2112/2114 BKN017
BECMG 2115/2118 16010KT BKN025
BECMG 2119/2121 BKN011
BECMG 2123/2201 BKN009
BECMG 2201/2203 11005KT
BECMG 2212/2214 9999 BKN017
BECMG 2215/2217 11010KT BKN025 RMK PHH